createdAt,value
2018-04-23T00:01:57.143Z,100427.05
2018-04-23T00:04:25.495Z,100438.86
2018-04-23T00:06:53.845Z,100419.53
2018-04-23T00:09:22.187Z,100429.41
2018-04-23T00:11:50.537Z,100421.86
2018-04-23T00:14:18.864Z,100413.61
2018-04-23T00:16:47.207Z,100417.28
2018-04-23T00:19:15.582Z,100414.79
2018-04-23T00:21:43.885Z,100423.91
2018-04-23T00:24:12.238Z,100420.34
2018-04-23T00:26:40.593Z,100431.41
2018-04-23T00:29:08.917Z,100431.06
2018-04-23T00:31:37.244Z,100423.33
2018-04-23T00:34:06.387Z,100421.13
2018-04-23T00:36:34.757Z,100454.77
2018-04-23T00:39:03.065Z,100493.39
2018-04-23T00:41:31.399Z,100470.35
2018-04-23T00:43:59.774Z,100416.98
2018-04-23T00:46:28.105Z,100375.60
2018-04-23T00:48:56.448Z,100367.43
2018-04-23T00:51:24.775Z,100356.92
2018-04-23T00:53:53.117Z,100371.81
2018-04-23T00:56:21.476Z,100399.87
2018-04-23T00:58:49.858Z,100444.88
2018-04-23T01:01:18.209Z,100435.73
2018-04-23T01:03:46.525Z,100421.69
2018-04-23T01:06:14.904Z,100417.17
2018-04-23T01:08:43.246Z,100439.11
2018-04-23T01:11:11.633Z,100456.41
2018-04-23T01:13:39.972Z,100419.98
2018-04-23T01:16:09.118Z,100386.93
2018-04-23T01:18:37.473Z,100383.39
2018-04-23T01:21:05.850Z,100410.30
2018-04-23T01:23:34.194Z,100457.61
2018-04-23T01:26:03.338Z,100427.83
2018-04-23T01:28:31.706Z,100405.72
2018-04-23T01:31:00.016Z,100394.08
2018-04-23T01:33:28.373Z,100376.83
2018-04-23T01:35:56.710Z,100391.73
2018-04-23T01:38:25.854Z,100391.39
2018-04-23T01:40:54.206Z,100377.66
2018-04-23T01:43:22.542Z,100363.14
2018-04-23T01:45:50.887Z,100325.78
2018-04-23T01:48:19.266Z,100352.57
2018-04-23T01:50:47.762Z,100315.86
2018-04-23T01:53:16.086Z,100303.83
2018-04-23T01:55:45.578Z,100259.94
2018-04-23T01:58:14.020Z,100255.39
2018-04-23T02:00:42.365Z,100286.33
2018-04-23T02:03:10.700Z,100346.36
2018-04-23T02:05:39.868Z,100367.23
2018-04-23T02:08:08.266Z,100367.06
2018-04-23T02:10:36.580Z,100351.27
2018-04-23T02:13:05.814Z,100351.11
2018-04-23T02:15:34.153Z,100350.80
2018-04-23T02:18:03.461Z,100369.33
2018-04-23T02:20:31.933Z,100369.28
2018-04-23T02:23:01.029Z,100372.37
2018-04-23T02:25:30.770Z,100372.88
2018-04-23T02:28:02.324Z,100361.59
2018-04-23T02:30:30.678Z,100360.16
2018-04-23T02:32:59.012Z,100373.70
2018-04-23T02:35:27.466Z,100373.39
2018-04-23T02:37:55.830Z,100378.23
2018-04-23T02:40:24.140Z,100374.70
2018-04-23T02:42:52.456Z,100368.78
2018-04-23T02:45:21.137Z,100363.64
2018-04-23T02:47:49.472Z,100362.61
2018-04-23T02:50:17.782Z,100362.13
2018-04-23T02:52:46.890Z,100354.29
2018-04-23T02:55:15.981Z,100361.86
2018-04-23T02:57:45.159Z,100355.39
2018-04-23T03:00:13.473Z,100358.06
2018-04-23T03:02:41.876Z,100348.38
2018-04-23T03:05:10.613Z,100352.59
2018-04-23T03:07:39.712Z,100353.78
2018-04-23T03:10:08.862Z,100353.64
2018-04-23T03:12:37.205Z,100348.02
2018-04-23T03:15:05.602Z,100342.81
2018-04-23T03:17:33.938Z,100348.65
2018-04-23T03:20:03.143Z,100347.78
2018-04-23T03:22:31.512Z,100349.09
2018-04-23T03:24:59.863Z,100342.39
2018-04-23T03:27:28.311Z,100343.70
2018-04-23T03:29:56.665Z,100344.23
2018-04-23T03:32:26.128Z,100340.31
2018-04-23T03:34:54.449Z,100341.25
2018-04-23T03:37:22.813Z,100349.67
2018-04-23T03:39:51.116Z,100345.31
2018-04-23T03:42:19.474Z,100354.64
2018-04-23T03:44:47.813Z,100352.66
2018-04-23T03:47:16.189Z,100356.30
2018-04-23T03:49:44.652Z,100351.79
2018-04-23T03:52:12.973Z,100353.92
2018-04-23T03:54:42.296Z,100358.38
2018-04-23T03:57:10.668Z,100355.08
2018-04-23T03:59:39.037Z,100353.19
2018-04-23T04:02:08.116Z,100356.36
2018-04-23T04:04:37.235Z,100353.56
2018-04-23T04:07:05.579Z,100353.56
2018-04-23T04:09:33.893Z,100362.90
2018-04-23T04:12:20.105Z,100354.46
2018-04-23T04:15:06.081Z,100355.10
2018-04-23T04:21:03.858Z,100365.33
2018-04-23T04:23:32.219Z,100357.91
2018-04-23T04:26:01.345Z,100367.88
2018-04-23T04:28:29.695Z,100361.52
2018-04-23T04:30:58.797Z,100363.77
2018-04-23T04:33:27.917Z,100357.16
2018-04-23T04:35:56.269Z,100360.12
2018-04-23T04:38:25.347Z,100361.27
2018-04-23T04:40:53.701Z,100357.77
2018-04-23T04:43:22.065Z,100361.54
2018-04-23T04:45:50.450Z,100359.48
2018-04-23T04:48:18.773Z,100358.65
2018-04-23T04:50:48.639Z,100361.77
2018-04-23T04:53:16.967Z,100358.98
2018-04-23T04:55:46.117Z,100361.48
2018-04-23T04:58:14.461Z,100361.59
2018-04-23T05:00:43.929Z,100372.81
2018-04-23T05:03:13.044Z,100370.41
2018-04-23T05:05:41.379Z,100377.22
2018-04-23T05:08:09.742Z,100380.13
2018-04-23T05:10:38.080Z,100394.45
2018-04-23T05:13:06.452Z,100397.89
2018-04-23T05:15:36.192Z,100390.73
2018-04-23T05:18:04.544Z,100393.61
2018-04-23T05:20:33.419Z,100394.20
2018-04-23T05:23:02.534Z,100396.20
2018-04-23T05:25:30.876Z,100402.75
2018-04-23T05:27:59.257Z,100404.14
2018-04-23T05:30:27.605Z,100408.71
2018-04-23T05:32:55.976Z,100408.67
2018-04-23T05:35:24.339Z,100405.65
2018-04-23T05:37:52.670Z,100409.34
2018-04-23T05:40:20.985Z,100411.58
2018-04-23T05:42:49.341Z,100406.15
2018-04-23T05:45:18.490Z,100409.66
2018-04-23T05:47:46.823Z,100409.76
2018-04-23T05:50:15.157Z,100411.33
2018-04-23T05:52:43.938Z,100412.86
2018-04-23T05:55:12.387Z,100409.39
2018-04-23T05:57:41.526Z,100406.41
2018-04-23T06:00:10.640Z,100410.56
2018-04-23T06:02:39.776Z,100400.23
2018-04-23T06:05:09.275Z,100401.14
2018-04-23T06:07:37.624Z,100394.62
2018-04-23T06:10:06.729Z,100412.22
2018-04-23T06:12:35.818Z,100408.66
2018-04-23T06:15:04.944Z,100410.69
2018-04-23T06:17:33.298Z,100412.17
2018-04-23T06:20:02.401Z,100412.92
2018-04-23T06:22:30.797Z,100401.30
2018-04-23T06:24:59.112Z,100410.36
2018-04-23T06:27:27.468Z,100393.03
2018-04-23T06:29:55.820Z,100383.63
2018-04-23T06:32:24.147Z,100387.52
2018-04-23T06:34:52.477Z,100387.37
2018-04-23T06:37:20.803Z,100397.94
2018-04-23T06:39:49.170Z,100396.16
2018-04-23T06:42:17.526Z,100402.30
2018-04-23T06:44:45.851Z,100403.37
2018-04-23T06:47:15.018Z,100405.60
2018-04-23T06:49:43.352Z,100389.83
2018-04-23T06:52:11.713Z,100391.34
2018-04-23T06:54:40.818Z,100391.89
2018-04-23T06:57:09.190Z,100381.44
2018-04-23T06:59:37.556Z,100392.01
2018-04-23T07:02:06.687Z,100388.63
2018-04-23T07:04:35.021Z,100385.63
2018-04-23T07:07:03.355Z,100383.82
2018-04-23T07:09:31.714Z,100384.34
2018-04-23T07:12:00.039Z,100379.00
2018-04-23T07:14:28.416Z,100374.39
2018-04-23T07:16:56.762Z,100373.19
2018-04-23T07:19:25.118Z,100374.73
2018-04-23T07:21:53.420Z,100367.39
2018-04-23T07:24:21.778Z,100364.64
2018-04-23T07:26:50.120Z,100360.75
2018-04-23T07:29:19.242Z,100363.33
2018-04-23T07:31:47.575Z,100374.78
2018-04-23T07:34:15.961Z,100372.65
2018-04-23T07:36:44.305Z,100372.92
2018-04-23T07:39:12.666Z,100370.56
2018-04-23T07:41:41.031Z,100381.80
2018-04-23T07:44:09.342Z,100395.55
2018-04-23T07:46:37.691Z,100392.13
2018-04-23T07:49:06.016Z,100395.15
2018-04-23T07:51:34.362Z,100398.39
2018-04-23T07:54:02.726Z,100402.55
2018-04-23T07:56:31.041Z,100407.98
2018-04-23T07:58:59.396Z,100418.14
2018-04-23T08:01:27.755Z,100432.86
2018-04-23T08:03:56.096Z,100416.45
2018-04-23T08:06:24.454Z,100427.88
2018-04-23T08:08:52.834Z,100432.75
2018-04-23T08:11:21.264Z,100437.58
2018-04-23T08:13:49.658Z,100435.47
2018-04-23T08:16:18.748Z,100426.80
2018-04-23T08:18:47.114Z,100438.30
2018-04-23T08:21:15.431Z,100437.81
2018-04-23T08:23:43.792Z,100425.11
2018-04-23T08:26:12.128Z,100423.52
2018-04-23T08:28:41.211Z,100417.36
2018-04-23T08:31:09.585Z,100413.05
2018-04-23T08:33:38.005Z,100409.94
2018-04-23T08:36:06.331Z,100404.23
2018-04-23T08:38:34.707Z,100406.66
2018-04-23T08:41:03.058Z,100408.95
2018-04-23T08:43:31.774Z,100420.16
2018-04-23T08:46:00.201Z,100427.34
2018-04-23T08:48:30.150Z,100428.27
2018-04-23T08:50:58.499Z,100429.62
2018-04-23T08:53:26.923Z,100430.97
2018-04-23T08:55:55.295Z,100430.01
2018-04-23T08:58:26.768Z,100436.27
2018-04-23T09:00:55.711Z,100424.94
2018-04-23T09:03:25.204Z,100418.59
2018-04-23T09:05:53.591Z,100421.38
2018-04-23T09:08:21.955Z,100412.06
2018-04-23T09:10:51.346Z,100415.52
2018-04-23T09:13:20.039Z,100419.33
2018-04-23T09:15:48.428Z,100416.09
2018-04-23T09:18:16.810Z,100423.48
2018-04-23T09:20:46.187Z,100418.30
2018-04-23T09:23:14.621Z,100417.63
2018-04-23T09:25:43.974Z,100419.58
2018-04-23T09:28:12.922Z,100427.30
2018-04-23T09:30:41.234Z,100425.31
2018-04-23T09:33:10.358Z,100426.24
2018-04-23T09:35:39.203Z,100429.86
2018-04-23T09:38:09.162Z,100432.67
2018-04-23T09:40:37.580Z,100436.16
2018-04-23T09:43:07.495Z,100428.09
2018-04-23T09:45:36.629Z,100427.60
2018-04-23T09:48:05.429Z,100427.63
2018-04-23T09:50:33.753Z,100426.20
2018-04-23T09:53:02.513Z,100429.98
2018-04-23T09:55:30.874Z,100424.31
2018-04-23T09:57:59.200Z,100430.28
2018-04-23T10:00:32.128Z,100432.30
2018-04-23T10:03:07.179Z,100457.77
2018-04-23T10:05:35.876Z,100438.66
2018-04-23T10:08:04.211Z,100441.27
2018-04-23T10:10:34.022Z,100441.88
2018-04-23T10:13:04.022Z,100450.87
2018-04-23T10:15:33.156Z,100448.16
2018-04-23T10:18:01.565Z,100449.20
2018-04-23T10:20:29.932Z,100450.22
2018-04-23T10:22:59.463Z,100449.85
2018-04-23T10:25:27.822Z,100453.92
2018-04-23T10:27:56.181Z,100447.17
2018-04-23T10:30:25.294Z,100452.52
2018-04-23T10:32:53.601Z,100444.98
2018-04-23T10:35:21.945Z,100448.67
2018-04-23T10:37:50.298Z,100440.45
2018-04-23T10:40:18.626Z,100447.86
2018-04-23T10:42:46.995Z,100446.48
2018-04-23T10:45:15.320Z,100457.37
2018-04-23T10:47:43.672Z,100444.73
2018-04-23T10:50:12.803Z,100442.88
2018-04-23T10:52:41.126Z,100443.78
2018-04-23T10:55:09.514Z,100442.72
2018-04-23T10:57:37.854Z,100449.48
2018-04-23T11:00:06.218Z,100439.89
2018-04-23T11:02:34.579Z,100447.44
2018-04-23T11:05:02.958Z,100444.85
2018-04-23T11:07:32.028Z,100451.84
2018-04-23T11:10:00.346Z,100450.91
2018-04-23T11:12:28.693Z,100447.40
2018-04-23T11:14:57.826Z,100452.41
2018-04-23T11:17:26.185Z,100458.86
2018-04-23T11:19:54.496Z,100452.11
2018-04-23T11:22:22.875Z,100454.75
2018-04-23T11:24:51.282Z,100460.62
2018-04-23T11:27:19.600Z,100467.09
2018-04-23T11:29:47.948Z,100462.09
2018-04-23T11:32:17.078Z,100458.23
2018-04-23T11:34:45.404Z,100456.26
2018-04-23T11:37:13.745Z,100456.15
2018-04-23T11:39:42.230Z,100450.78
2018-04-23T11:42:10.713Z,100450.91
2018-04-23T11:44:39.056Z,100445.63
2018-04-23T11:47:08.190Z,100447.31
2018-04-23T11:49:36.530Z,100446.28
2018-04-23T11:52:04.917Z,100435.96
2018-04-23T11:54:33.263Z,100444.73
2018-04-23T11:57:01.617Z,100440.41
2018-04-23T11:59:29.930Z,100442.77
2018-04-23T12:01:58.237Z,100447.52
2018-04-23T12:04:26.578Z,100441.64
2018-04-23T12:06:54.909Z,100450.21
2018-04-23T12:09:23.258Z,100447.45
2018-04-23T12:11:51.588Z,100445.50
2018-04-23T12:14:19.945Z,100443.65
2018-04-23T12:16:48.283Z,100438.80
2018-04-23T12:19:16.641Z,100436.43
2018-04-23T12:21:45.821Z,100428.88
2018-04-23T12:24:14.871Z,100436.94
2018-04-23T12:26:43.214Z,100430.80
2018-04-23T12:29:12.322Z,100432.59
2018-04-23T12:31:40.675Z,100440.25
2018-04-23T12:34:09.009Z,100434.80
2018-04-23T12:36:37.381Z,100437.81
2018-04-23T12:39:06.581Z,100434.34
2018-04-23T12:41:34.934Z,100423.36
2018-04-23T12:44:03.245Z,100428.89
2018-04-23T12:46:31.594Z,100420.70
2018-04-23T12:48:59.907Z,100426.05
2018-04-23T12:51:28.271Z,100419.48
2018-04-23T12:53:56.593Z,100416.25
2018-04-23T12:56:24.953Z,100414.25
2018-04-23T12:58:53.285Z,100416.08
2018-04-23T13:01:21.872Z,100414.92
2018-04-23T13:03:50.207Z,100404.61
2018-04-23T13:06:24.486Z,100418.11
2018-04-23T13:08:52.891Z,100411.25
2018-04-23T13:11:21.258Z,100416.70
2018-04-23T13:13:49.623Z,100418.14
2018-04-23T13:16:17.997Z,100415.98
2018-04-23T13:18:47.599Z,100412.94
2018-04-23T13:21:15.975Z,100411.45
2018-04-23T13:23:45.394Z,100406.36
2018-04-23T13:26:14.552Z,100411.60
2018-04-23T13:28:42.915Z,100399.39
2018-04-23T13:31:12.121Z,100389.09
2018-04-23T13:33:40.449Z,100390.00
2018-04-23T13:36:09.005Z,100396.32
2018-04-23T13:38:37.545Z,100396.75
2018-04-23T13:41:07.260Z,100394.72
2018-04-23T13:43:37.415Z,100395.02
2018-04-23T13:46:05.935Z,100397.67
2018-04-23T13:48:35.224Z,100400.09
2018-04-23T13:51:05.858Z,100395.99
2018-04-23T13:53:35.093Z,100384.19
2018-04-23T13:56:04.735Z,100391.70
2018-04-23T13:58:33.667Z,100386.13
2018-04-23T14:01:02.144Z,100384.57
2018-04-23T14:03:30.629Z,100389.77
2018-04-23T14:05:58.996Z,100377.76
2018-04-23T14:08:27.508Z,100378.39
2018-04-23T14:10:55.886Z,100382.41
2018-04-23T14:13:25.380Z,100387.76
2018-04-23T14:15:53.752Z,100396.15
2018-04-23T14:18:22.118Z,100394.57
2018-04-23T14:20:50.435Z,100409.33
2018-04-23T14:23:18.796Z,100400.70
2018-04-23T14:25:47.912Z,100409.14
2018-04-23T14:28:16.316Z,100406.36
2018-04-23T14:30:44.696Z,100405.85
2018-04-23T14:33:14.060Z,100409.01
2018-04-23T14:35:43.627Z,100419.13
2018-04-23T14:38:12.107Z,100406.20
2018-04-23T14:40:40.442Z,100412.31
2018-04-23T14:43:08.803Z,100407.28
2018-04-23T14:45:37.908Z,100407.47
2018-04-23T14:48:06.476Z,100411.70
2018-04-23T14:50:35.629Z,100418.43
2018-04-23T14:53:04.024Z,100413.87
2018-04-23T14:55:32.694Z,100412.56
2018-04-23T14:58:01.852Z,100411.13
2018-04-23T15:00:30.181Z,100413.95
2018-04-23T15:02:58.952Z,100408.17
2018-04-23T15:05:32.793Z,100407.08
2018-04-23T15:08:01.932Z,100401.99
2018-04-23T15:10:30.277Z,100404.69
2018-04-23T15:12:59.377Z,100404.99
2018-04-23T15:15:28.495Z,100399.78
2018-04-23T15:17:56.821Z,100395.50
2018-04-23T15:20:25.184Z,100405.01
2018-04-23T15:22:53.530Z,100402.98
2018-04-23T15:25:21.910Z,100405.40
2018-04-23T15:27:50.216Z,100396.87
2018-04-23T15:30:18.574Z,100392.81
2018-04-23T15:32:47.028Z,100391.46
2018-04-23T15:35:15.400Z,100383.91
2018-04-23T15:37:43.740Z,100383.48
2018-04-23T15:40:12.117Z,100383.01
2018-04-23T15:42:40.429Z,100389.44
2018-04-23T15:45:09.514Z,100379.13
2018-04-23T15:47:38.642Z,100376.22
2018-04-23T15:50:07.014Z,100375.05
2018-04-23T15:52:35.324Z,100369.69
2018-04-23T15:55:03.687Z,100371.61
2018-04-23T15:57:32.065Z,100364.92
2018-04-23T16:00:00.471Z,100369.66
2018-04-23T16:02:28.827Z,100365.98
2018-04-23T16:04:57.170Z,100361.31
2018-04-23T16:07:25.526Z,100368.27
2018-04-23T16:09:54.667Z,100371.05
2018-04-23T16:12:23.806Z,100368.52
2018-04-23T16:14:52.118Z,100368.92
2018-04-23T16:17:20.469Z,100374.27
2018-04-23T16:19:48.777Z,100369.19
2018-04-23T16:22:17.098Z,100362.25
2018-04-23T16:24:45.483Z,100366.88
2018-04-23T16:27:13.810Z,100365.27
2018-04-23T16:29:43.028Z,100364.28
2018-04-23T16:32:12.173Z,100359.13
2018-04-23T16:34:41.303Z,100355.44
2018-04-23T16:37:09.620Z,100353.64
2018-04-23T16:39:38.084Z,100360.56
2018-04-23T16:42:06.437Z,100365.27
2018-04-23T16:44:39.415Z,100372.16
2018-04-23T16:47:03.204Z,100371.54
2018-04-23T16:49:31.567Z,100378.70
2018-04-23T16:51:59.939Z,100376.64
2018-04-23T16:54:28.305Z,100382.52
2018-04-23T16:56:57.441Z,100384.72
2018-04-23T16:59:25.763Z,100384.56
2018-04-23T17:01:54.553Z,100384.25
2018-04-23T17:04:22.882Z,100394.06
2018-04-23T17:06:51.241Z,100391.48
2018-04-23T17:09:20.661Z,100402.05
2018-04-23T17:11:49.117Z,100399.31
2018-04-23T17:14:17.555Z,100413.09
2018-04-23T17:16:45.890Z,100417.61
2018-04-23T17:19:14.262Z,100424.63
2018-04-23T17:21:42.586Z,100421.59
2018-04-23T17:24:11.328Z,100429.22
2018-04-23T17:26:39.645Z,100446.71
2018-04-23T17:29:08.020Z,100447.63
2018-04-23T17:31:36.380Z,100452.50
2018-04-23T17:34:04.710Z,100462.04
2018-04-23T17:36:33.820Z,100463.36
2018-04-23T17:39:02.177Z,100470.02
2018-04-23T17:41:30.923Z,100471.76
2018-04-23T17:43:59.292Z,100478.45
2018-04-23T17:46:27.665Z,100485.30
2018-04-23T17:48:56.029Z,100488.22
2018-04-23T17:51:24.407Z,100500.66
2018-04-23T17:53:52.739Z,100507.77
2018-04-23T17:56:21.109Z,100508.61
2018-04-23T17:58:49.511Z,100508.53
2018-04-23T18:01:17.797Z,100508.43
2018-04-23T18:03:46.151Z,100505.16
2018-04-23T18:06:14.520Z,100515.71
2018-04-23T18:08:42.859Z,100515.55
2018-04-23T18:11:11.473Z,100515.84
2018-04-23T18:13:39.835Z,100515.70
2018-04-23T18:16:08.159Z,100518.44
2018-04-23T18:18:37.286Z,100528.86
2018-04-23T18:21:05.623Z,100529.92
2018-04-23T18:23:34.000Z,100533.20
2018-04-23T18:26:02.380Z,100538.86
2018-04-23T18:28:31.472Z,100541.02
2018-04-23T18:30:59.842Z,100536.42
2018-04-23T18:33:28.150Z,100542.23
2018-04-23T18:35:57.649Z,100538.91
2018-04-23T18:38:26.796Z,100550.47
2018-04-23T18:40:55.133Z,100546.91
2018-04-23T18:43:24.130Z,100543.40
2018-04-23T18:45:52.473Z,100546.73
2018-04-23T18:48:20.805Z,100546.77
2018-04-23T18:50:49.158Z,100553.72
2018-04-23T18:53:17.544Z,100560.38
2018-04-23T18:55:45.899Z,100567.17
2018-04-23T18:58:15.439Z,100565.53
2018-04-23T19:00:43.837Z,100565.48
2018-04-23T19:03:13.134Z,100564.42
2018-04-23T19:05:41.507Z,100575.63
2018-04-23T19:08:09.894Z,100581.38
2018-04-23T19:10:38.261Z,100584.09
2018-04-23T19:13:06.841Z,100582.59
2018-04-23T19:15:35.180Z,100594.13
2018-04-23T19:18:04.324Z,100595.49
2018-04-23T19:20:33.497Z,100596.59
2018-04-23T19:23:01.866Z,100595.23
2018-04-23T19:25:30.198Z,100605.98
2018-04-23T19:27:58.997Z,100599.70
2018-04-23T19:30:28.158Z,100612.94
2018-04-23T19:32:56.545Z,100619.55
2018-04-23T19:35:24.873Z,100617.80
2018-04-23T19:37:53.992Z,100613.94
2018-04-23T19:40:22.358Z,100611.93
2018-04-23T19:42:51.421Z,100612.81
2018-04-23T19:45:20.749Z,100620.27
2018-04-23T19:47:49.105Z,100617.06
2018-04-23T19:50:19.917Z,100623.09
2018-04-23T19:52:48.667Z,100629.68
2018-04-23T19:55:17.055Z,100632.52
2018-04-23T19:57:46.114Z,100631.08
2018-04-23T20:00:16.008Z,100632.91
2018-04-23T20:02:45.121Z,100630.15
2018-04-23T20:05:14.213Z,100633.06
2018-04-23T20:07:43.313Z,100641.03
2018-04-23T20:10:12.415Z,100639.66
2018-04-23T20:12:40.777Z,100640.09
2018-04-23T20:15:11.296Z,100651.66
2018-04-23T20:17:40.391Z,100645.09
2018-04-23T20:20:09.521Z,100643.64
2018-04-23T20:22:37.865Z,100638.88
2018-04-23T20:25:07.764Z,100643.52
2018-04-23T20:27:36.070Z,100646.00
2018-04-23T20:30:05.883Z,100646.55
2018-04-23T20:32:35.654Z,100651.27
2018-04-23T20:35:04.084Z,100650.16
2018-04-23T20:37:33.224Z,100650.95
2018-04-23T20:40:01.581Z,100652.91
2018-04-23T20:42:29.926Z,100651.45
2018-04-23T20:44:59.015Z,100655.39
2018-04-23T20:47:28.887Z,100656.02
2018-04-23T20:49:57.259Z,100661.45
2018-04-23T20:52:25.580Z,100667.70
2018-04-23T20:54:53.960Z,100668.89
2018-04-23T20:57:23.103Z,100667.72
2018-04-23T20:59:51.462Z,100668.59
2018-04-23T21:02:19.832Z,100683.24
2018-04-23T21:04:48.233Z,100690.41
2018-04-23T21:07:16.568Z,100688.13
2018-04-23T21:09:45.776Z,100689.41
2018-04-23T21:12:14.944Z,100696.32
2018-04-23T21:14:43.277Z,100698.31
2018-04-23T21:17:11.626Z,100700.73
2018-04-23T21:19:39.991Z,100694.81
2018-04-23T21:22:09.087Z,100695.33
2018-04-23T21:24:38.209Z,100695.35
2018-04-23T21:27:06.538Z,100700.34
2018-04-23T21:29:36.261Z,100697.68
2018-04-23T21:32:05.011Z,100701.31
2018-04-23T21:34:33.328Z,100709.31
2018-04-23T21:37:01.709Z,100703.19
2018-04-23T21:39:30.802Z,100711.98
2018-04-23T21:41:59.129Z,100710.76
2018-04-23T21:44:27.472Z,100705.61
2018-04-23T21:46:56.555Z,100710.47
2018-04-23T21:49:24.914Z,100712.88
2018-04-23T21:51:53.237Z,100701.20
2018-04-23T21:54:21.565Z,100706.70
2018-04-23T21:56:49.917Z,100705.02
2018-04-23T21:59:18.264Z,100707.41
2018-04-23T22:01:47.720Z,100716.51
2018-04-23T22:04:16.081Z,100723.50
2018-04-23T22:06:44.434Z,100727.25
2018-04-23T22:09:12.733Z,100723.19
2018-04-23T22:11:41.076Z,100724.52
2018-04-23T22:14:10.178Z,100720.88
2018-04-23T22:16:38.532Z,100722.75
2018-04-23T22:19:07.697Z,100723.66
2018-04-23T22:21:36.026Z,100731.28
2018-04-23T22:24:04.341Z,100727.42
2018-04-23T22:26:32.679Z,100728.90
2018-04-23T22:29:01.022Z,100723.52
2018-04-23T22:31:29.384Z,100725.00
2018-04-23T22:33:57.816Z,100727.81
2018-04-23T22:36:26.165Z,100734.55
2018-04-23T22:38:54.486Z,100734.20
2018-04-23T22:41:22.863Z,100737.85
2018-04-23T22:43:51.234Z,100730.91
2018-04-23T22:46:19.549Z,100730.66
2018-04-23T22:48:47.921Z,100735.08
2018-04-23T22:51:16.253Z,100733.48
2018-04-23T22:53:45.328Z,100737.95
2018-04-23T22:56:13.689Z,100739.72
2018-04-23T22:58:42.040Z,100735.89
2018-04-23T23:01:10.414Z,100736.38
2018-04-23T23:03:38.725Z,100733.30
2018-04-23T23:06:07.115Z,100737.09
2018-04-23T23:08:35.425Z,100734.03
2018-04-23T23:11:03.783Z,100731.86
2018-04-23T23:13:32.879Z,100733.78
2018-04-23T23:16:01.996Z,100734.77
2018-04-23T23:18:30.551Z,100735.82
2018-04-23T23:20:59.662Z,100729.77
2018-04-23T23:23:27.982Z,100732.92
2018-04-23T23:25:57.091Z,100730.41
2018-04-23T23:28:25.441Z,100728.78
2018-04-23T23:30:53.795Z,100726.62
2018-04-23T23:33:22.148Z,100736.01
2018-04-23T23:35:51.245Z,100732.45
2018-04-23T23:38:20.357Z,100734.67
2018-04-23T23:40:48.644Z,100741.77
2018-04-23T23:43:16.995Z,100738.25
2018-04-23T23:45:46.088Z,100740.04
2018-04-23T23:48:15.206Z,100742.64
2018-04-23T23:50:43.564Z,100739.67
2018-04-23T23:53:12.645Z,100745.55
2018-04-23T23:55:40.962Z,100748.59
2018-04-23T23:58:09.359Z,100752.09
